createdAt,value
2018-12-27T00:02:11.074Z,102521.86
2018-12-27T00:04:59.150Z,102524.00
2018-12-27T00:07:47.247Z,102524.00
2018-12-27T00:10:35.355Z,102521.92
2018-12-27T00:13:23.652Z,102524.80
2018-12-27T00:16:11.618Z,102521.41
2018-12-27T00:22:06.803Z,102508.63
2018-12-27T00:24:54.763Z,102503.18
2018-12-27T00:30:30.895Z,102501.95
2018-12-27T00:33:03.201Z,102486.62
2018-12-27T00:35:30.981Z,102491.23
2018-12-27T00:38:00.091Z,102481.59
2018-12-27T00:40:29.493Z,102489.14
2018-12-27T00:42:59.990Z,102483.20
2018-12-27T00:45:29.229Z,102476.42
2018-12-27T00:47:58.296Z,102479.79
2018-12-27T00:50:27.290Z,102472.60
2018-12-27T00:52:56.338Z,102467.48
2018-12-27T00:55:25.335Z,102474.70
2018-12-27T00:57:54.387Z,102467.89
2018-12-27T01:00:23.438Z,102467.09
2018-12-27T01:02:52.442Z,102461.13
2018-12-27T01:05:21.555Z,102462.37
2018-12-27T01:07:50.952Z,102458.59
2018-12-27T01:10:19.989Z,102456.85
2018-12-27T01:12:49.018Z,102463.67
2018-12-27T01:15:18.068Z,102455.14
2018-12-27T01:18:06.103Z,102457.66
2018-12-27T01:20:35.502Z,102452.56
2018-12-27T01:23:04.890Z,102455.94
2018-12-27T01:25:33.883Z,102453.41
2018-12-27T01:28:02.955Z,102443.27
2018-12-27T01:30:32.276Z,102455.14
2018-12-27T01:33:01.376Z,102451.73
2018-12-27T01:35:30.378Z,102455.94
2018-12-27T01:37:59.375Z,102464.41
2018-12-27T01:40:28.411Z,102462.70
2018-12-27T01:42:57.457Z,102460.96
2018-12-27T01:45:26.464Z,102460.16
2018-12-27T01:47:55.854Z,102460.53
2018-12-27T01:50:24.909Z,102462.65
2018-12-27T01:52:53.922Z,102458.84
2018-12-27T01:55:22.940Z,102456.77
2018-12-27T01:57:52.245Z,102460.93
2018-12-27T02:00:21.245Z,102455.78
2018-12-27T02:03:09.397Z,102453.77
2018-12-27T02:05:38.409Z,102461.45
2018-12-27T02:08:07.772Z,102453.84
2018-12-27T02:10:36.817Z,102454.67
2018-12-27T02:13:05.830Z,102446.63
2018-12-27T02:15:34.867Z,102452.56
2018-12-27T02:18:03.916Z,102448.35
2018-12-27T02:20:32.915Z,102451.72
2018-12-27T02:23:01.907Z,102448.38
2018-12-27T02:25:50.019Z,102450.92
2018-12-27T02:28:19.007Z,102450.87
2018-12-27T02:30:48.063Z,102453.00
2018-12-27T02:33:17.149Z,102449.66
2018-12-27T02:35:46.178Z,102442.90
2018-12-27T02:38:15.177Z,102434.84
2018-12-27T02:40:44.225Z,102440.34
2018-12-27T02:43:13.266Z,102434.89
2018-12-27T02:45:42.293Z,102432.80
2018-12-27T02:48:11.348Z,102430.69
2018-12-27T02:50:40.344Z,102420.53
2018-12-27T02:53:28.426Z,102429.43
2018-12-27T02:55:57.782Z,102421.34
2018-12-27T02:58:27.182Z,102420.55
2018-12-27T03:00:56.206Z,102418.85
2018-12-27T03:03:25.233Z,102412.50
2018-12-27T03:05:54.242Z,102414.22
2018-12-27T03:08:23.287Z,102411.23
2018-12-27T03:11:11.450Z,102406.15
2018-12-27T03:13:40.452Z,102401.89
2018-12-27T03:16:09.534Z,102400.66
2018-12-27T03:18:38.536Z,102399.45
2018-12-27T03:21:07.575Z,102395.63
2018-12-27T03:23:36.620Z,102393.42
2018-12-27T03:26:05.667Z,102391.33
2018-12-27T03:28:34.652Z,102377.42
2018-12-27T03:31:03.681Z,102384.64
2018-12-27T03:33:52.738Z,102382.52
2018-12-27T03:36:22.498Z,102378.72
2018-12-27T03:38:51.490Z,102373.67
2018-12-27T03:41:20.822Z,102366.03
2018-12-27T03:43:50.173Z,102366.05
2018-12-27T03:46:19.505Z,102365.20
2018-12-27T03:48:48.560Z,102358.44
2018-12-27T03:51:17.545Z,102360.09
2018-12-27T03:53:46.554Z,102353.31
2018-12-27T03:56:15.917Z,102356.30
2018-12-27T03:58:44.960Z,102354.60
2018-12-27T04:01:13.955Z,102355.46
2018-12-27T04:03:43.031Z,102353.35
2018-12-27T04:06:12.026Z,102358.86
2018-12-27T04:09:00.201Z,102354.61
2018-12-27T04:11:29.199Z,102348.30
2018-12-27T04:13:58.206Z,102347.51
2018-12-27T04:16:46.275Z,102344.11
2018-12-27T04:19:34.309Z,102339.88
2018-12-27T04:22:22.388Z,102339.04
2018-12-27T04:24:51.457Z,102337.75
2018-12-27T04:27:39.493Z,102332.20
2018-12-27T04:30:27.530Z,102323.29
2018-12-27T04:33:36.033Z,102330.12
2018-12-27T04:36:44.561Z,102328.39
2018-12-27T04:39:32.646Z,102326.63
2018-12-27T04:45:34.578Z,102316.40
2018-12-27T04:48:22.476Z,102325.80
2018-12-27T04:51:10.543Z,102323.66
2018-12-27T04:53:58.777Z,102321.13
2018-12-27T04:56:46.928Z,102323.27
2018-12-27T04:59:34.825Z,102319.05
2018-12-27T05:02:22.915Z,102315.13
2018-12-27T05:05:10.979Z,102314.70
2018-12-27T05:08:00.484Z,102315.53
2018-12-27T05:10:48.838Z,102307.92
2018-12-27T05:13:36.778Z,102306.70
2018-12-27T05:19:31.942Z,102309.67
2018-12-27T05:22:00.852Z,102307.52
2018-12-27T05:24:48.932Z,102311.81
2018-12-27T05:27:37.030Z,102315.20
2018-12-27T05:30:45.667Z,102321.58
2018-12-27T05:33:33.750Z,102329.19
2018-12-27T05:36:21.835Z,102322.00
2018-12-27T05:39:10.256Z,102331.33
2018-12-27T05:41:58.359Z,102325.86
2018-12-27T05:44:46.286Z,102326.24
2018-12-27T05:47:34.389Z,102322.09
2018-12-27T05:53:29.893Z,102328.48
2018-12-27T05:56:17.836Z,102331.42
2018-12-27T05:59:05.913Z,102331.44
2018-12-27T06:04:47.860Z,102332.73
2018-12-27T06:07:35.906Z,102331.89
2018-12-27T06:10:44.670Z,102333.05
2018-12-27T06:13:32.775Z,102337.70
2018-12-27T06:16:01.827Z,102335.55
2018-12-27T06:18:49.906Z,102341.87
2018-12-27T06:21:37.969Z,102342.27
2018-12-27T06:24:26.289Z,102335.46
2018-12-27T06:27:14.489Z,102335.94
2018-12-27T06:30:02.651Z,102332.14
2018-12-27T06:32:50.715Z,102338.91
2018-12-27T06:35:38.649Z,102336.39
2018-12-27T06:38:27.013Z,102331.73
2018-12-27T06:41:15.094Z,102330.45
2018-12-27T06:44:03.175Z,102332.55
2018-12-27T06:46:51.281Z,102330.34
2018-12-27T06:49:39.268Z,102326.61
2018-12-27T06:52:27.350Z,102321.45
2018-12-27T06:55:15.400Z,102316.80
2018-12-27T06:58:03.483Z,102331.63
2018-12-27T07:00:51.387Z,102328.23
2018-12-27T07:03:39.324Z,102313.38
2018-12-27T07:06:27.384Z,102316.38
2018-12-27T07:09:15.466Z,102317.19
2018-12-27T07:12:03.409Z,102321.44
2018-12-27T07:14:51.303Z,102311.30
2018-12-27T07:17:39.381Z,102306.19
2018-12-27T07:20:27.441Z,102306.64
2018-12-27T07:26:22.615Z,102303.22
2018-12-27T07:32:17.801Z,102304.11
2018-12-27T07:35:05.840Z,102302.36
2018-12-27T07:37:34.914Z,102295.17
2018-12-27T07:40:04.422Z,102299.39
2018-12-27T07:42:52.462Z,102293.01
2018-12-27T07:48:33.841Z,102296.05
2018-12-27T07:51:21.773Z,102296.88
2018-12-27T07:54:09.814Z,102307.88
2018-12-27T07:56:58.153Z,102304.93
2018-12-27T07:59:46.240Z,102308.31
2018-12-27T08:02:34.177Z,102308.70
2018-12-27T08:05:04.250Z,102311.70
2018-12-27T08:10:46.798Z,102305.39
2018-12-27T08:13:15.735Z,102310.45
2018-12-27T08:16:03.780Z,102312.16
2018-12-27T08:18:51.885Z,102318.17
2018-12-27T08:21:39.922Z,102305.48
2018-12-27T08:24:28.006Z,102310.56
2018-12-27T08:27:16.063Z,102302.55
2018-12-27T08:30:04.144Z,102298.28
2018-12-27T08:32:33.048Z,102298.81
2018-12-27T08:35:21.132Z,102309.38
2018-12-27T08:38:09.198Z,102311.08
2018-12-27T08:40:57.307Z,102321.19
2018-12-27T08:43:45.255Z,102315.78
2018-12-27T08:46:33.339Z,102311.12
2018-12-27T08:49:02.594Z,102317.50
2018-12-27T08:51:50.677Z,102325.14
2018-12-27T08:57:32.199Z,102338.73
2018-12-27T09:00:20.100Z,102329.40
2018-12-27T09:03:08.179Z,102332.39
2018-12-27T09:05:56.211Z,102332.81
2018-12-27T09:08:44.342Z,102321.84
2018-12-27T09:11:32.240Z,102321.84
2018-12-27T09:14:20.582Z,102327.34
2018-12-27T09:17:08.670Z,102325.22
2018-12-27T09:19:56.644Z,102321.41
2018-12-27T09:22:44.714Z,102321.00
2018-12-27T09:25:32.690Z,102327.77
2018-12-27T09:28:20.768Z,102328.55
2018-12-27T09:31:08.846Z,102337.88
2018-12-27T09:33:56.942Z,102331.91
2018-12-27T09:36:45.076Z,102331.52
2018-12-27T09:39:33.466Z,102332.35
2018-12-27T09:42:21.545Z,102335.34
2018-12-27T09:45:09.675Z,102344.19
2018-12-27T09:47:57.726Z,102333.60
2018-12-27T09:50:45.668Z,102338.26
2018-12-27T09:53:33.770Z,102329.38
2018-12-27T09:56:21.864Z,102335.73
2018-12-27T09:59:09.791Z,102327.30
2018-12-27T10:01:57.876Z,102326.04
2018-12-27T10:10:47.098Z,102327.75
2018-12-27T10:13:35.182Z,102327.80
2018-12-27T10:16:23.263Z,102321.44
2018-12-27T10:19:11.328Z,102327.81
2018-12-27T10:21:59.412Z,102320.63
2018-12-27T10:24:47.519Z,102314.70
2018-12-27T10:27:35.596Z,102316.81
2018-12-27T10:30:44.092Z,102324.43
2018-12-27T10:33:32.131Z,102310.89
2018-12-27T10:36:20.077Z,102318.97
2018-12-27T10:39:08.122Z,102319.78
2018-12-27T10:41:56.205Z,102319.36
2018-12-27T10:44:44.241Z,102310.89
2018-12-27T10:47:32.327Z,102309.62
2018-12-27T10:50:20.362Z,102320.25
2018-12-27T10:56:09.922Z,102305.84
2018-12-27T10:58:38.822Z,102304.14
2018-12-27T11:01:26.802Z,102299.06
2018-12-27T11:04:14.840Z,102310.94
2018-12-27T11:07:02.946Z,102299.06
2018-12-27T11:09:51.021Z,102299.53
2018-12-27T11:12:39.097Z,102296.51
2018-12-27T11:15:47.599Z,102299.12
2018-12-27T11:21:42.832Z,102293.22
2018-12-27T11:24:12.121Z,102295.34
2018-12-27T11:27:00.204Z,102286.44
2018-12-27T11:29:48.290Z,102289.83
2018-12-27T11:32:36.378Z,102283.44
2018-12-27T11:38:18.486Z,102275.82
2018-12-27T11:41:06.607Z,102279.63
2018-12-27T11:43:54.689Z,102283.05
2018-12-27T11:46:42.743Z,102275.84
2018-12-27T11:49:30.679Z,102272.47
2018-12-27T11:52:18.766Z,102269.48
2018-12-27T11:58:13.945Z,102264.83
2018-12-27T12:01:01.985Z,102260.16
2018-12-27T12:03:50.068Z,102264.84
2018-12-27T12:06:38.193Z,102255.06
2018-12-27T12:09:07.937Z,102263.55
2018-12-27T12:11:55.880Z,102260.59
2018-12-27T12:14:44.210Z,102266.11
2018-12-27T12:17:32.182Z,102266.96
2018-12-27T12:23:27.706Z,102261.45
2018-12-27T12:25:56.722Z,102258.06
2018-12-27T12:28:44.806Z,102258.91
2018-12-27T12:31:32.850Z,102261.88
2018-12-27T12:34:20.786Z,102263.58
2018-12-27T12:37:29.293Z,102269.52
2018-12-27T12:43:24.485Z,102269.94
2018-12-27T12:46:12.579Z,102262.73
2018-12-27T12:52:07.682Z,102258.48
2018-12-27T12:54:55.759Z,102262.72
2018-12-27T12:57:43.762Z,102261.03
2018-12-27T13:00:32.198Z,102262.72
2018-12-27T13:03:20.257Z,102258.06
2018-12-27T13:06:08.323Z,102258.50
2018-12-27T13:11:44.397Z,102262.31
2018-12-27T13:14:32.473Z,102260.61
2018-12-27T13:17:20.543Z,102271.22
2018-12-27T13:20:08.630Z,102266.97
2018-12-27T13:22:37.632Z,102267.83
2018-12-27T13:25:46.132Z,102265.28
2018-12-27T13:28:34.213Z,102260.63
2018-12-27T13:31:22.281Z,102268.25
2018-12-27T13:34:10.348Z,102278.86
2018-12-27T13:36:58.370Z,102271.23
2018-12-27T13:39:46.424Z,102270.37
2018-12-27T13:42:34.498Z,102273.76
2018-12-27T13:45:22.537Z,102272.91
2018-12-27T13:48:10.654Z,102264.42
2018-12-27T13:50:58.568Z,102267.81
2018-12-27T13:53:46.527Z,102268.65
2018-12-27T13:56:34.581Z,102266.95
2018-12-27T13:59:22.666Z,102273.75
2018-12-27T14:02:11.011Z,102266.53
2018-12-27T14:04:59.087Z,102271.63
2018-12-27T14:07:47.037Z,102266.10
2018-12-27T14:13:42.287Z,102273.32
2018-12-27T14:16:30.180Z,102276.70
2018-12-27T14:22:11.625Z,102269.90
2018-12-27T14:24:59.702Z,102277.98
2018-12-27T14:30:41.191Z,102272.02
2018-12-27T14:33:29.127Z,102281.34
2018-12-27T14:36:17.214Z,102272.00
2018-12-27T14:38:46.483Z,102269.45
2018-12-27T14:44:29.542Z,102276.66
2018-12-27T14:47:17.554Z,102277.08
2018-12-27T14:50:05.598Z,102276.66
2018-12-27T14:52:53.541Z,102276.22
2018-12-27T14:55:41.906Z,102285.13
2018-12-27T14:58:29.977Z,102283.84
2018-12-27T15:01:18.068Z,102280.41
2018-12-27T15:04:06.164Z,102287.19
2018-12-27T15:06:54.256Z,102294.35
2018-12-27T15:09:42.147Z,102292.66
2018-12-27T15:12:30.221Z,102293.09
2018-12-27T15:15:18.326Z,102291.83
2018-12-27T15:18:06.437Z,102299.86
2018-12-27T15:20:54.758Z,102291.78
2018-12-27T15:23:42.805Z,102288.83
2018-12-27T15:26:30.882Z,102293.05
2018-12-27T15:29:18.975Z,102292.59
2018-12-27T15:32:07.306Z,102296.41
2018-12-27T15:34:55.377Z,102295.15
2018-12-27T15:37:43.440Z,102297.70
2018-12-27T15:40:31.522Z,102288.38
2018-12-27T15:43:19.600Z,102290.47
2018-12-27T15:45:48.663Z,102289.60
2018-12-27T15:48:36.759Z,102290.47
2018-12-27T15:54:31.934Z,102297.66
2018-12-27T15:57:19.965Z,102296.83
2018-12-27T16:00:07.906Z,102293.48
2018-12-27T16:02:55.810Z,102290.92
2018-12-27T16:05:44.174Z,102287.55
2018-12-27T16:11:39.663Z,102286.70
2018-12-27T16:17:34.855Z,102290.52
2018-12-27T16:20:22.894Z,102292.22
2018-12-27T16:26:09.529Z,102287.14
2018-12-27T16:28:38.407Z,102287.15
2018-12-27T16:31:26.485Z,102279.50
2018-12-27T16:34:14.563Z,102280.35
2018-12-27T16:37:09.036Z,102280.78
2018-12-27T16:39:52.738Z,102285.44
2018-12-27T16:42:40.719Z,102289.28
2018-12-27T16:45:09.791Z,102292.69
2018-12-27T16:47:57.708Z,102281.22
2018-12-27T16:50:45.814Z,102286.72
2018-12-27T16:53:33.852Z,102280.35
2018-12-27T16:56:21.830Z,102280.36
2018-12-27T16:59:10.033Z,102275.27
2018-12-27T17:01:57.989Z,102268.94
2018-12-27T17:04:46.081Z,102282.50
2018-12-27T17:07:34.164Z,102271.03
2018-12-27T17:10:22.206Z,102280.36
2018-12-27T17:12:51.184Z,102272.70
2018-12-27T17:15:39.601Z,102279.50
2018-12-27T17:18:27.673Z,102271.01
2018-12-27T17:24:09.616Z,102268.90
2018-12-27T17:26:57.743Z,102265.93
2018-12-27T17:29:45.818Z,102267.17
2018-12-27T17:32:33.902Z,102271.00
2018-12-27T17:35:21.982Z,102265.91
2018-12-27T17:38:09.917Z,102271.03
2018-12-27T17:40:58.047Z,102274.42
2018-12-27T17:43:46.018Z,102270.19
2018-12-27T17:49:41.154Z,102268.50
2018-12-27T17:52:30.413Z,102274.41
2018-12-27T17:55:18.857Z,102271.04
2018-12-27T17:58:06.908Z,102271.89
2018-12-27T18:00:54.949Z,102277.39
2018-12-27T18:03:43.027Z,102273.98
2018-12-27T18:06:12.006Z,102273.14
2018-12-27T18:12:07.041Z,102286.70
2018-12-27T18:14:55.122Z,102289.67
2018-12-27T18:17:43.433Z,102293.89
2018-12-27T18:20:31.599Z,102295.57
2018-12-27T18:23:19.637Z,102298.09
2018-12-27T18:26:07.727Z,102290.90
2018-12-27T18:28:55.761Z,102294.70
2018-12-27T18:31:43.720Z,102290.47
2018-12-27T18:37:38.877Z,102298.09
2018-12-27T18:40:26.903Z,102292.59
2018-12-27T18:43:14.931Z,102295.98
2018-12-27T18:46:02.895Z,102294.70
2018-12-27T18:48:50.976Z,102295.95
2018-12-27T18:51:38.867Z,102291.77
2018-12-27T18:54:26.907Z,102296.42
2018-12-27T18:57:14.994Z,102290.92
2018-12-27T19:00:02.907Z,102300.21
2018-12-27T19:02:50.984Z,102300.69
2018-12-27T19:05:38.893Z,102295.58
2018-12-27T19:08:26.903Z,102301.05
2018-12-27T19:11:34.096Z,102302.80
2018-12-27T19:14:22.063Z,102297.70
2018-12-27T19:17:10.305Z,102298.55
2018-12-27T19:19:58.236Z,102289.23
2018-12-27T19:23:17.917Z,102285.84
2018-12-27T19:26:05.938Z,102290.09
2018-12-27T19:28:53.979Z,102279.50
2018-12-27T19:31:43.526Z,102279.92
2018-12-27T19:34:31.868Z,102292.20
2018-12-27T19:37:19.891Z,102300.25
2018-12-27T19:40:07.917Z,102299.42
2018-12-27T19:42:56.084Z,102294.70
2018-12-27T19:45:44.005Z,102292.59
2018-12-27T19:48:52.541Z,102309.55
2018-12-27T19:51:40.579Z,102307.87
2018-12-27T19:54:32.004Z,102307.44
2018-12-27T19:57:18.456Z,102308.29
2018-12-27T20:03:15.407Z,102313.81
2018-12-27T20:06:03.422Z,102307.45
2018-12-27T20:08:51.446Z,102312.09
2018-12-27T20:14:46.613Z,102306.58
2018-12-27T20:17:34.709Z,102294.69
2018-12-27T20:20:22.798Z,102308.23
2018-12-27T20:23:22.767Z,102305.30
2018-12-27T20:26:00.637Z,102312.06
2018-12-27T20:28:48.671Z,102303.58
2018-12-27T20:31:36.769Z,102304.00
2018-12-27T20:34:24.855Z,102298.89
2018-12-27T20:37:03.893Z,102289.98
2018-12-27T20:39:52.013Z,102283.64
2018-12-27T20:42:39.959Z,102289.98
2018-12-27T20:45:27.997Z,102289.55
2018-12-27T20:48:36.495Z,102296.33
2018-12-27T20:51:24.469Z,102298.42
2018-12-27T20:54:12.553Z,102300.48
2018-12-27T20:57:00.603Z,102296.70
2018-12-27T20:59:48.672Z,102303.06
2018-12-27T21:02:36.572Z,102301.77
2018-12-27T21:05:05.733Z,102310.61
2018-12-27T21:08:01.091Z,102319.98
2018-12-27T21:10:49.178Z,102325.48
2018-12-27T21:13:37.219Z,102309.70
2018-12-27T21:16:25.306Z,102301.27
2018-12-27T21:19:13.284Z,102307.61
2018-12-27T21:22:01.321Z,102306.78
2018-12-27T21:24:49.406Z,102315.67
2018-12-27T21:27:37.442Z,102324.16
2018-12-27T21:33:21.026Z,102329.62
2018-12-27T21:36:09.104Z,102328.77
2018-12-27T21:38:57.155Z,102333.03
2018-12-27T21:41:45.239Z,102336.08
2018-12-27T21:44:14.103Z,102327.63
2018-12-27T21:47:02.064Z,102322.95
2018-12-27T21:52:57.231Z,102317.85
2018-12-27T21:55:45.285Z,102321.69
2018-12-27T21:58:33.375Z,102313.11
2018-12-27T22:04:15.335Z,102303.03
2018-12-27T22:10:10.849Z,102303.45
2018-12-27T22:12:58.934Z,102300.92
2018-12-27T22:15:46.975Z,102298.37
2018-12-27T22:18:35.075Z,102293.73
2018-12-27T22:21:23.081Z,102292.81
2018-12-27T22:24:11.355Z,102291.59
2018-12-27T22:26:59.429Z,102287.81
2018-12-27T22:29:47.473Z,102276.35
2018-12-27T22:32:35.554Z,102279.76
2018-12-27T22:35:04.604Z,102278.06
2018-12-27T22:37:52.693Z,102275.94
2018-12-27T22:40:40.725Z,102272.12
2018-12-27T22:43:29.151Z,102272.98
2018-12-27T22:46:17.055Z,102281.88
2018-12-27T22:49:05.324Z,102279.75
2018-12-27T22:51:53.367Z,102272.56
2018-12-27T22:54:41.444Z,102276.78
2018-12-27T22:57:29.515Z,102280.20
2018-12-27T23:03:14.497Z,102280.61
2018-12-27T23:06:02.584Z,102286.92
2018-12-27T23:08:50.543Z,102288.64
2018-12-27T23:11:38.625Z,102287.80
2018-12-27T23:14:26.707Z,102286.92
2018-12-27T23:17:15.074Z,102286.89
2018-12-27T23:23:10.269Z,102287.31
2018-12-27T23:25:58.307Z,102286.94
2018-12-27T23:28:46.393Z,102294.55
2018-12-27T23:31:34.467Z,102293.73
2018-12-27T23:34:22.575Z,102300.52
2018-12-27T23:37:11.043Z,102305.11
2018-12-27T23:39:59.049Z,102301.36
2018-12-27T23:42:47.126Z,102300.53
2018-12-27T23:45:35.193Z,102295.88
2018-12-27T23:48:23.288Z,102303.51
2018-12-27T23:51:11.222Z,102292.52
2018-12-27T23:53:40.085Z,102295.89
2018-12-27T23:56:28.029Z,102295.46
2018-12-27T23:59:16.065Z,102296.29
